»·PEaware :: N872G KEKS-KSEA

N872G :: KEKS-KSEA

FLIGHT INFORMATION

Flight Status: Arrived
Operator: Privately registered:
United States
More flights under this callsign
Pilot: Gabor H. (24209)
Aircraft: CESSNA 510 CITATION MUSTANG
(C510)
More flights by this aircraft type
Origin: KEKS Ennis-Big Sky
United States
Destination: KSEA Seattle-Tacoma Intl
United States
More flights between these airports :: More routes between these airports
Route: ENNIS1 HIA SUNED CHINS4
File this flight plan on PilotEdge
Remarks:
Altitude:
(Current/Filed)
40,000ft
Speed:
(Current/Filed)
340kts
Departed: 04-Feb-21 02:29 PM
Arrived: 04-Feb-21 04:46 PM
Distance/Time
Traveled:
460nm/2:17
Distance/Time
To Go:
Arrived

Flight Plot

Page will automatically refresh every two minutes.

Flight plan parsing failed; only flown route is shown


Map Options




Map Legend


Flown Route
Filed Route
Departure Airport
Arrival Airport
Navaid (VOR, NDB)
Fix

Horizontal Profiles

Position Reports

Time Latitude Longitude Heading Altitude Ground
Speed
04-Feb-21 13:30 45.265720 -111.649436 359 5343ft 0kts
04-Feb-21 13:31 45.265720 -111.649436 359 5343ft 0kts
04-Feb-21 13:33 45.265720 -111.649436 359 5343ft 0kts
04-Feb-21 13:34 45.265720 -111.649436 359 5343ft 0kts
04-Feb-21 13:37 45.265720 -111.649436 360 5343ft 0kts
04-Feb-21 13:38 45.265720 -111.649436 360 5343ft 0kts
04-Feb-21 13:39 45.265720 -111.649436 360 5343ft 0kts
04-Feb-21 13:40 45.265720 -111.649436 360 5343ft 0kts
04-Feb-21 13:41 45.265720 -111.649436 360 5343ft 0kts
04-Feb-21 13:42 45.265720 -111.649436 360 5343ft 0kts
04-Feb-21 13:43 45.265720 -111.649436 360 5343ft 0kts
04-Feb-21 13:44 45.265720 -111.649436 360 5343ft 0kts
04-Feb-21 13:45 45.265720 -111.649436 360 5343ft 0kts
04-Feb-21 13:46 45.265720 -111.649436 360 5343ft 0kts
04-Feb-21 13:47 45.265720 -111.649436 360 5343ft 0kts
04-Feb-21 13:48 45.265720 -111.649436 360 5343ft 0kts
04-Feb-21 13:49 45.265720 -111.649436 360 5343ft 0kts
04-Feb-21 13:50 45.265720 -111.649436 360 5343ft 0kts
04-Feb-21 13:51 45.265720 -111.649436 360 5343ft 0kts
04-Feb-21 13:52 45.265720 -111.649436 360 5343ft 0kts
04-Feb-21 13:53 45.265720 -111.649436 360 5343ft 0kts
04-Feb-21 13:54 45.265720 -111.649436 360 5343ft 0kts
04-Feb-21 13:55 45.265720 -111.649436 360 5343ft 0kts
04-Feb-21 13:56 45.265720 -111.649436 360 5343ft 0kts
04-Feb-21 13:57 45.265720 -111.649436 360 5343ft 0kts
04-Feb-21 13:58 45.265720 -111.649436 360 5343ft 0kts
04-Feb-21 13:59 45.265720 -111.649436 360 5343ft 0kts
04-Feb-21 14:00 45.265720 -111.649436 360 5343ft 0kts
04-Feb-21 14:01 45.265720 -111.649436 360 5343ft 0kts
04-Feb-21 14:02 45.265720 -111.649436 360 5343ft 0kts
04-Feb-21 14:03 45.265720 -111.649436 360 5343ft 0kts
04-Feb-21 14:04 45.265720 -111.649436 360 5343ft 0kts
04-Feb-21 14:05 45.265720 -111.649436 360 5343ft 0kts
04-Feb-21 14:06 45.265720 -111.649436 360 5343ft 0kts
04-Feb-21 14:07 45.265720 -111.649436 0 5343ft 0kts
04-Feb-21 14:08 45.265720 -111.649436 0 5343ft 0kts
04-Feb-21 14:09 45.265720 -111.649436 0 5343ft 0kts
04-Feb-21 14:10 45.265720 -111.649436 0 5343ft 0kts
04-Feb-21 14:11 45.265720 -111.649436 0 5343ft 0kts
04-Feb-21 14:12 45.265720 -111.649436 0 5343ft 0kts
04-Feb-21 14:13 45.265720 -111.649436 0 5343ft 0kts
04-Feb-21 14:14 45.265720 -111.649436 0 5343ft 0kts
04-Feb-21 14:15 45.265720 -111.649436 0 5343ft 0kts
04-Feb-21 14:16 45.265904 -111.649345 57 5344ft 0kts
04-Feb-21 14:17 45.266013 -111.649167 30 5344ft 2kts
04-Feb-21 14:18 45.267688 -111.649225 358 5346ft 6kts
04-Feb-21 14:19 45.269274 -111.649376 353 5349ft 6kts
04-Feb-21 14:20 45.271315 -111.649537 357 5356ft 10kts
04-Feb-21 14:21 45.273714 -111.649729 357 5365ft 5kts
04-Feb-21 14:22 45.275136 -111.649846 353 5370ft 0kts
04-Feb-21 14:23 45.276766 -111.650015 356 5376ft 0kts
04-Feb-21 14:24 45.277896 -111.650052 27 5380ft 0kts
04-Feb-21 14:26 45.277896 -111.650052 27 5380ft 0kts
04-Feb-21 14:27 45.280442 -111.649367 355 5394ft 14kts
04-Feb-21 14:28 45.283132 -111.649595 173 5409ft 6kts
04-Feb-21 14:29 45.260792 -111.648100 177 5933ft 155kts
04-Feb-21 14:30 45.262341 -111.698148 347 8856ft 236kts
04-Feb-21 14:31 45.321359 -111.658430 9 12297ft 234kts
04-Feb-21 14:32 45.382698 -111.657466 346 15223ft 224kts
04-Feb-21 14:33 45.444229 -111.662900 346 17907ft 224kts
04-Feb-21 14:34 45.506042 -111.668247 345 20321ft 224kts
04-Feb-21 14:35 45.568084 -111.673579 345 22428ft 224kts
04-Feb-21 14:36 45.626393 -111.689690 306 24091ft 212kts
04-Feb-21 14:37 45.660460 -111.758251 309 25569ft 214kts
04-Feb-21 14:38 45.695248 -111.827945 310 26881ft 217kts
04-Feb-21 14:39 45.730206 -111.899141 310 28049ft 221kts
04-Feb-21 14:40 45.765678 -111.971968 311 29034ft 226kts
04-Feb-21 14:41 45.801663 -112.045964 312 29992ft 227kts
04-Feb-21 14:41 45.831513 -112.107703 313 30780ft 227kts
04-Feb-21 14:43 45.863076 -112.203425 292 31881ft 251kts
04-Feb-21 14:43 45.870860 -112.284991 295 32644ft 246kts
04-Feb-21 14:44 45.880106 -112.382115 295 33556ft 246kts
04-Feb-21 14:45 45.888973 -112.478901 295 34465ft 243kts
04-Feb-21 14:46 45.897394 -112.574645 296 35353ft 241kts
04-Feb-21 14:47 45.905667 -112.669749 295 36254ft 238kts
04-Feb-21 14:48 45.913716 -112.763362 296 37179ft 235kts
04-Feb-21 14:49 45.921549 -112.857746 296 37877ft 238kts
04-Feb-21 14:50 45.929162 -112.952050 299 38549ft 237kts
04-Feb-21 14:51 45.936814 -113.046545 300 39136ft 237kts
04-Feb-21 14:52 45.944860 -113.140156 300 39711ft 235kts
04-Feb-21 14:53 45.952672 -113.233137 300 40032ft 242kts
04-Feb-21 14:54 45.960728 -113.331575 299 40046ft 249kts
04-Feb-21 14:55 45.968280 -113.429314 300 40110ft 245kts
04-Feb-21 14:56 45.975839 -113.526339 300 40164ft 243kts
04-Feb-21 14:57 45.983351 -113.622476 300 40166ft 243kts
04-Feb-21 14:58 45.990871 -113.719126 299 40175ft 243kts
04-Feb-21 14:59 45.998257 -113.816196 299 40174ft 245kts
04-Feb-21 15:00 46.005449 -113.913397 299 40167ft 246kts
04-Feb-21 15:01 46.012698 -114.011199 299 40169ft 246kts
04-Feb-21 15:02 46.019883 -114.108786 299 40165ft 246kts
04-Feb-21 15:03 46.026956 -114.206757 299 40166ft 245kts
04-Feb-21 15:04 46.033925 -114.304511 299 40160ft 246kts
04-Feb-21 15:05 46.040937 -114.402150 299 40157ft 245kts
04-Feb-21 15:06 46.047629 -114.499673 299 40157ft 245kts
04-Feb-21 15:07 46.054370 -114.597050 299 40159ft 244kts
04-Feb-21 15:08 46.060988 -114.694415 299 40155ft 245kts
04-Feb-21 15:09 46.067530 -114.791919 299 40177ft 245kts
04-Feb-21 15:10 46.074012 -114.889377 299 40211ft 244kts
04-Feb-21 15:11 46.080413 -114.986958 299 40248ft 243kts
04-Feb-21 15:12 46.086687 -115.084377 299 40247ft 244kts
04-Feb-21 15:13 46.092947 -115.181890 298 40241ft 245kts
04-Feb-21 15:14 46.099048 -115.279226 299 40243ft 243kts
04-Feb-21 15:15 46.105221 -115.377028 298 40278ft 248kts
04-Feb-21 15:16 46.111376 -115.477219 298 40276ft 254kts
04-Feb-21 15:17 46.117482 -115.579097 298 40275ft 257kts
04-Feb-21 15:18 46.123493 -115.682467 297 40281ft 260kts
04-Feb-21 15:19 46.129699 -115.786865 297 40281ft 262kts
04-Feb-21 15:20 46.135700 -115.892165 297 40279ft 265kts
04-Feb-21 15:21 46.141681 -115.997929 296 40279ft 266kts
04-Feb-21 15:22 46.147586 -116.104236 296 40279ft 266kts
04-Feb-21 15:23 46.153417 -116.210721 296 40276ft 266kts
04-Feb-21 15:24 46.159098 -116.316825 296 40274ft 265kts
04-Feb-21 15:25 46.164625 -116.422699 297 40273ft 265kts
04-Feb-21 15:26 46.170171 -116.529019 297 40285ft 265kts
04-Feb-21 15:27 46.175568 -116.634758 297 40296ft 265kts
04-Feb-21 15:28 46.180861 -116.740982 296 40306ft 266kts
04-Feb-21 15:29 46.186149 -116.847542 296 40303ft 267kts
04-Feb-21 15:30 46.191456 -116.954558 295 40301ft 268kts
04-Feb-21 15:31 46.196748 -117.062067 294 40301ft 270kts
04-Feb-21 15:32 46.201742 -117.170755 292 40301ft 273kts
04-Feb-21 15:33 46.206455 -117.280062 292 40300ft 274kts
04-Feb-21 15:34 46.211249 -117.390025 292 40298ft 275kts
04-Feb-21 15:35 46.215993 -117.500396 292 40297ft 276kts
04-Feb-21 15:36 46.220679 -117.611048 292 40297ft 276kts
04-Feb-21 15:37 46.225218 -117.721707 292 40315ft 276kts
04-Feb-21 15:38 46.229753 -117.832582 292 40327ft 277kts
04-Feb-21 15:39 46.234141 -117.943936 292 40328ft 278kts
04-Feb-21 15:40 46.238419 -118.055359 292 40327ft 278kts
04-Feb-21 15:41 46.242609 -118.167307 292 40326ft 278kts
04-Feb-21 15:42 46.246676 -118.278901 292 40325ft 278kts
04-Feb-21 15:43 46.250643 -118.390523 292 40324ft 278kts
04-Feb-21 15:44 46.254497 -118.501953 292 40323ft 278kts
04-Feb-21 15:45 46.258242 -118.613564 292 40321ft 278kts
04-Feb-21 15:46 46.261855 -118.725147 291 40323ft 279kts
04-Feb-21 15:47 46.265503 -118.837032 291 40319ft 279kts
04-Feb-21 15:48 46.269249 -118.949615 289 40318ft 280kts
04-Feb-21 15:49 46.272678 -119.062080 288 40316ft 281kts
04-Feb-21 15:50 46.275590 -119.174903 288 40311ft 281kts
04-Feb-21 15:51 46.278618 -119.287679 288 40305ft 281kts
04-Feb-21 15:52 46.281589 -119.400248 288 40304ft 280kts
04-Feb-21 15:53 46.284482 -119.512870 288 40302ft 280kts
04-Feb-21 15:54 46.287237 -119.625223 288 40301ft 280kts
04-Feb-21 15:55 46.289902 -119.737807 287 40309ft 280kts
04-Feb-21 15:56 46.292531 -119.850525 287 40303ft 282kts
04-Feb-21 15:57 46.297609 -119.962161 308 40280ft 253kts
04-Feb-21 15:58 46.340919 -120.037298 316 40287ft 244kts
04-Feb-21 15:59 46.383341 -120.113786 316 40285ft 244kts
04-Feb-21 16:00 46.427883 -120.192626 316 39250ft 263kts
04-Feb-21 16:01 46.473446 -120.273238 316 37822ft 254kts
04-Feb-21 16:02 46.517954 -120.351986 317 36315ft 253kts
04-Feb-21 16:03 46.562771 -120.431316 317 34803ft 258kts
04-Feb-21 16:04 46.605394 -120.518359 313 33358ft 268kts
04-Feb-21 16:05 46.648331 -120.607810 312 31913ft 272kts
04-Feb-21 16:06 46.691916 -120.699282 312 30474ft 275kts
04-Feb-21 16:07 46.735463 -120.790906 311 29061ft 278kts
04-Feb-21 16:08 46.780666 -120.885352 309 27627ft 289kts
04-Feb-21 16:09 46.826129 -120.982690 308 25990ft 280kts
04-Feb-21 16:10 46.870033 -121.076026 308 24448ft 285kts
04-Feb-21 16:11 46.914307 -121.170331 306 24249ft 280kts
04-Feb-21 16:12 46.958059 -121.264207 305 24276ft 282kts
04-Feb-21 16:14 47.001421 -121.357711 305 24325ft 278kts
04-Feb-21 16:15 47.042827 -121.447087 304 23100ft 242kts
04-Feb-21 16:16 47.077146 -121.521117 303 19721ft 210kts
04-Feb-21 16:17 47.107729 -121.587672 303 17129ft 197kts
04-Feb-21 16:18 47.137724 -121.653267 302 16044ft 207kts
04-Feb-21 16:19 47.172928 -121.730442 302 15607ft 243kts
04-Feb-21 16:20 47.208865 -121.808963 302 15083ft 221kts
04-Feb-21 16:21 47.242929 -121.883678 302 14598ft 219kts
04-Feb-21 16:22 47.278062 -121.960946 302 13567ft 227kts
04-Feb-21 16:23 47.313176 -122.038377 302 12103ft 231kts
04-Feb-21 16:24 47.349342 -122.117776 300 10638ft 235kts
04-Feb-21 16:25 47.408103 -122.141490 358 9465ft 244kts
04-Feb-21 16:26 47.476025 -122.132103 358 8159ft 253kts
04-Feb-21 16:27 47.548300 -122.125488 358 6867ft 263kts
04-Feb-21 16:28 47.617636 -122.121470 358 6025ft 241kts
04-Feb-21 16:29 47.685517 -122.118437 351 6024ft 245kts
04-Feb-21 16:30 47.750410 -122.130505 348 6018ft 228kts
04-Feb-21 16:31 47.813794 -122.142104 348 6007ft 231kts
04-Feb-21 16:32 47.877861 -122.153814 348 6001ft 231kts
04-Feb-21 16:32 47.913839 -122.198826 295 5999ft 205kts
04-Feb-21 16:33 47.904343 -122.257436 205 6006ft 178kts
04-Feb-21 16:34 47.858863 -122.285887 205 6000ft 176kts
04-Feb-21 16:36 47.806225 -122.318557 200 6001ft 176kts
04-Feb-21 16:36 47.765122 -122.308137 172 6005ft 182kts
04-Feb-21 16:37 47.720761 -122.324936 167 6008ft 179kts
04-Feb-21 16:38 47.670805 -122.316191 184 4970ft 179kts
04-Feb-21 16:39 47.626174 -122.316887 182 3800ft 127kts
04-Feb-21 16:40 47.591673 -122.317092 181 3051ft 122kts
04-Feb-21 16:41 47.558449 -122.317290 180 2374ft 116kts
04-Feb-21 16:42 47.526432 -122.317473 179 1745ft 116kts
04-Feb-21 16:43 47.493769 -122.317640 178 1117ft 111kts
04-Feb-21 16:44 47.465909 -122.317806 178 575ft 97kts
04-Feb-21 16:45 47.449380 -122.317651 158 474ft 21kts
04-Feb-21 16:46 47.444437 -122.313555 180 474ft 35kts
04-Feb-21 16:47 47.439757 -122.314655 325 474ft 4kts
04-Feb-21 16:48 47.439546 -122.315568 191 474ft 0kts
04-Feb-21 16:49 47.439546 -122.315568 191 474ft 0kts

Navigation Log

Ident Type
Flight plan parsing failed, navigation log unavailable